This is the latest recevied weather packets stored in our database for station/object NG7N. If no packets are shown the sender has not sent any weather packets the latest 10 day(s).
| Time | Temp. | Humidity | Pressure | Rain* | Wind** | Luminosity | Snow |
|---|---|---|---|---|---|---|---|
| 1777679963 | 17.22° C | 65% | 1015 hPa | 0 mm | - | - | - |
| 1777678163 | 17.78° C | 61% | 1015.2 hPa | 0 mm | - | - | - |
| 1777676363 | 18.89° C | 60% | 1015.4 hPa | 0 mm | - | - | - |
| 1777674563 | 18.33° C | 62% | 1015.6 hPa | 0 mm | - | - | - |
| 1777673963 | 17.78° C | 62% | 1015.6 hPa | 0 mm | - | - | - |
| 1777672163 | 17.78° C | 63% | 1015.6 hPa | 0 mm | - | - | - |
| 1777669163 | 17.22° C | 65% | 1015.7 hPa | 0 mm | - | - | - |
| 1777667963 | 17.22° C | 63% | 1015.8 hPa | 0 mm | - | - | - |
| 1777665563 | 16.67° C | 66% | 1016.2 hPa | 0 mm | - | - | - |
| 1777663763 | 16.11° C | 68% | 1016.3 hPa | 0 mm | - | - | - |
| 1777663163 | 15.56° C | 70% | 1016.3 hPa | 0 mm | - | - | - |
| 1777662563 | 15.56° C | 70% | 1016.4 hPa | 0 mm | - | - | - |
| 1777661963 | 15° C | 71% | 1016.5 hPa | 0 mm | - | - | - |
| 1777660163 | 15° C | 70% | 1016.7 hPa | 0 mm | - | - | - |
| 1777659563 | 15.56° C | 69% | 1016.7 hPa | 0 mm | - | - | - |
| 1777651763 | 13.33° C | 81% | 1017.3 hPa | 0 mm | - | - | - |
| 1777648163 | 12.22° C | 81% | 1017.3 hPa | 0 mm | - | - | - |
| 1777645763 | 11.67° C | 84% | 1017.2 hPa | 0 mm | - | - | - |
| 1777635563 | 11.11° C | 84% | 1016.4 hPa | 0 mm | - | - | - |
| 1777626562 | 12.78° C | 79% | 1016.3 hPa | 0 mm | - | - | - |
| 1777625363 | 13.33° C | 74% | 1016.3 hPa | 0 mm | - | - | - |
| 1777621763 | 13.33° C | 75% | 1016.5 hPa | 0 mm | - | - | - |
| 1777606762 | 17.22° C | 65% | 1016.1 hPa | 0 mm | - | - | - |
| 1777583962 | 18.89° C | 62% | 1018.6 hPa | 0 mm | - | - | - |
| 1777582162 | 17.78° C | 64% | 1018.8 hPa | 0 mm | - | - | - |
* Rain latest hour (hover to see other rain measurements)
** Current wind speed in m/s (hover to see current wind gust speed)